sensor_id;sensor_type;location;lat;lon;timestamp;P1;durP1;ratioP1;P2;durP2;ratioP2
68353;SDS011;55274;43.060;25.618;2023-04-25T00:01:36;14.00;;;7.93;;
68353;SDS011;55274;43.060;25.618;2023-04-25T00:04:02;12.02;;;7.35;;
68353;SDS011;55274;43.060;25.618;2023-04-25T00:06:31;12.55;;;7.10;;
68353;SDS011;55274;43.060;25.618;2023-04-25T00:08:57;11.27;;;6.95;;
68353;SDS011;55274;43.060;25.618;2023-04-25T00:11:23;9.80;;;6.22;;
68353;SDS011;55274;43.060;25.618;2023-04-25T00:13:49;17.65;;;8.52;;
68353;SDS011;55274;43.060;25.618;2023-04-25T00:16:19;11.43;;;7.00;;
68353;SDS011;55274;43.060;25.618;2023-04-25T00:18:45;10.82;;;5.38;;
68353;SDS011;55274;43.060;25.618;2023-04-25T00:21:16;11.30;;;6.53;;
68353;SDS011;55274;43.060;25.618;2023-04-25T00:23:43;12.50;;;6.60;;
68353;SDS011;55274;43.060;25.618;2023-04-25T00:26:10;11.93;;;6.03;;
68353;SDS011;55274;43.060;25.618;2023-04-25T00:28:36;9.90;;;5.95;;
68353;SDS011;55274;43.060;25.618;2023-04-25T00:31:03;11.65;;;7.05;;
68353;SDS011;55274;43.060;25.618;2023-04-25T00:33:29;10.00;;;6.32;;
68353;SDS011;55274;43.060;25.618;2023-04-25T00:35:55;11.40;;;6.63;;
68353;SDS011;55274;43.060;25.618;2023-04-25T00:38:21;10.50;;;5.85;;
68353;SDS011;55274;43.060;25.618;2023-04-25T00:40:47;11.30;;;6.03;;
68353;SDS011;55274;43.060;25.618;2023-04-25T00:43:13;11.75;;;6.68;;
68353;SDS011;55274;43.060;25.618;2023-04-25T00:45:39;11.88;;;6.10;;
68353;SDS011;55274;43.060;25.618;2023-04-25T00:48:05;11.57;;;6.13;;
68353;SDS011;55274;43.060;25.618;2023-04-25T00:50:32;8.40;;;5.60;;
68353;SDS011;55274;43.060;25.618;2023-04-25T00:52:59;10.70;;;5.88;;
68353;SDS011;55274;43.060;25.618;2023-04-25T00:55:26;14.05;;;7.45;;
68353;SDS011;55274;43.060;25.618;2023-04-25T00:57:52;17.92;;;8.00;;
68353;SDS011;55274;43.060;25.618;2023-04-25T01:00:18;14.90;;;7.38;;
68353;SDS011;55274;43.060;25.618;2023-04-25T01:02:44;12.98;;;6.47;;
68353;SDS011;55274;43.060;25.618;2023-04-25T01:05:11;13.45;;;7.25;;
68353;SDS011;55274;43.060;25.618;2023-04-25T01:07:37;12.55;;;7.40;;
68353;SDS011;55274;43.060;25.618;2023-04-25T01:10:03;13.70;;;6.30;;
68353;SDS011;55274;43.060;25.618;2023-04-25T01:12:31;11.73;;;6.43;;
68353;SDS011;55274;43.060;25.618;2023-04-25T01:14:57;12.40;;;6.55;;
68353;SDS011;55274;43.060;25.618;2023-04-25T01:17:23;10.70;;;6.78;;
68353;SDS011;55274;43.060;25.618;2023-04-25T01:19:49;10.30;;;6.53;;
68353;SDS011;55274;43.060;25.618;2023-04-25T01:22:15;10.38;;;6.32;;
68353;SDS011;55274;43.060;25.618;2023-04-25T01:24:42;10.60;;;5.88;;
68353;SDS011;55274;43.060;25.618;2023-04-25T01:27:08;8.10;;;5.38;;
68353;SDS011;55274;43.060;25.618;2023-04-25T01:29:34;6.97;;;4.78;;
68353;SDS011;55274;43.060;25.618;2023-04-25T01:32:01;9.07;;;5.30;;
68353;SDS011;55274;43.060;25.618;2023-04-25T01:34:28;9.68;;;5.82;;
68353;SDS011;55274;43.060;25.618;2023-04-25T01:36:54;13.05;;;6.30;;
68353;SDS011;55274;43.060;25.618;2023-04-25T01:39:20;10.25;;;5.72;;
68353;SDS011;55274;43.060;25.618;2023-04-25T01:41:47;11.30;;;6.20;;
68353;SDS011;55274;43.060;25.618;2023-04-25T01:44:14;12.07;;;6.07;;
68353;SDS011;55274;43.060;25.618;2023-04-25T01:46:40;10.35;;;6.28;;
68353;SDS011;55274;43.060;25.618;2023-04-25T01:49:06;8.45;;;5.47;;
68353;SDS011;55274;43.060;25.618;2023-04-25T01:51:32;11.50;;;6.03;;
68353;SDS011;55274;43.060;25.618;2023-04-25T01:53:58;10.80;;;6.25;;
68353;SDS011;55274;43.060;25.618;2023-04-25T01:56:23;12.55;;;6.45;;
68353;SDS011;55274;43.060;25.618;2023-04-25T01:58:50;9.45;;;5.30;;
68353;SDS011;55274;43.060;25.618;2023-04-25T02:01:16;9.80;;;5.90;;
68353;SDS011;55274;43.060;25.618;2023-04-25T02:03:42;12.68;;;5.75;;
68353;SDS011;55274;43.060;25.618;2023-04-25T02:06:08;10.50;;;5.82;;
68353;SDS011;55274;43.060;25.618;2023-04-25T02:08:34;10.00;;;5.60;;
68353;SDS011;55274;43.060;25.618;2023-04-25T02:11:02;11.77;;;6.07;;
68353;SDS011;55274;43.060;25.618;2023-04-25T02:13:28;9.23;;;5.35;;
68353;SDS011;55274;43.060;25.618;2023-04-25T02:15:54;11.13;;;5.72;;
68353;SDS011;55274;43.060;25.618;2023-04-25T02:18:19;10.30;;;5.65;;
68353;SDS011;55274;43.060;25.618;2023-04-25T02:20:46;10.45;;;5.78;;
68353;SDS011;55274;43.060;25.618;2023-04-25T02:23:12;8.70;;;5.45;;
68353;SDS011;55274;43.060;25.618;2023-04-25T02:25:37;8.68;;;5.55;;
68353;SDS011;55274;43.060;25.618;2023-04-25T02:28:03;8.85;;;5.65;;
68353;SDS011;55274;43.060;25.618;2023-04-25T02:30:29;12.07;;;5.97;;
68353;SDS011;55274;43.060;25.618;2023-04-25T02:32:55;10.57;;;5.85;;
68353;SDS011;55274;43.060;25.618;2023-04-25T02:35:21;17.23;;;6.20;;
68353;SDS011;55274;43.060;25.618;2023-04-25T02:37:47;9.40;;;6.25;;
68353;SDS011;55274;43.060;25.618;2023-04-25T02:40:13;15.50;;;7.55;;
68353;SDS011;55274;43.060;25.618;2023-04-25T02:42:38;11.43;;;6.82;;
68353;SDS011;55274;43.060;25.618;2023-04-25T02:45:04;9.95;;;6.05;;
68353;SDS011;55274;43.060;25.618;2023-04-25T02:47:30;13.15;;;7.03;;
68353;SDS011;55274;43.060;25.618;2023-04-25T02:49:56;13.35;;;7.10;;
68353;SDS011;55274;43.060;25.618;2023-04-25T02:52:22;11.27;;;6.07;;
68353;SDS011;55274;43.060;25.618;2023-04-25T02:54:48;11.93;;;5.88;;
68353;SDS011;55274;43.060;25.618;2023-04-25T02:57:14;10.30;;;6.40;;
68353;SDS011;55274;43.060;25.618;2023-04-25T02:59:39;10.90;;;6.20;;
68353;SDS011;55274;43.060;25.618;2023-04-25T03:02:05;12.02;;;7.07;;
68353;SDS011;55274;43.060;25.618;2023-04-25T03:04:31;13.93;;;7.82;;
68353;SDS011;55274;43.060;25.618;2023-04-25T03:06:58;13.48;;;7.65;;
68353;SDS011;55274;43.060;25.618;2023-04-25T03:09:24;13.63;;;7.03;;
68353;SDS011;55274;43.060;25.618;2023-04-25T03:11:50;8.90;;;5.43;;
68353;SDS011;55274;43.060;25.618;2023-04-25T03:14:16;10.73;;;5.65;;
68353;SDS011;55274;43.060;25.618;2023-04-25T03:16:41;9.40;;;5.78;;
68353;SDS011;55274;43.060;25.618;2023-04-25T03:19:07;9.13;;;5.68;;
68353;SDS011;55274;43.060;25.618;2023-04-25T03:21:34;8.18;;;5.63;;
68353;SDS011;55274;43.060;25.618;2023-04-25T03:24:01;11.27;;;6.47;;
68353;SDS011;55274;43.060;25.618;2023-04-25T03:26:28;11.52;;;6.80;;
68353;SDS011;55274;43.060;25.618;2023-04-25T03:28:54;16.17;;;6.40;;
68353;SDS011;55274;43.060;25.618;2023-04-25T03:31:20;10.30;;;6.10;;
68353;SDS011;55274;43.060;25.618;2023-04-25T03:33:46;14.68;;;8.25;;
68353;SDS011;55274;43.060;25.618;2023-04-25T03:36:12;14.95;;;8.13;;
68353;SDS011;55274;43.060;25.618;2023-04-25T03:38:38;14.52;;;7.93;;
68353;SDS011;55274;43.060;25.618;2023-04-25T03:41:04;14.40;;;7.65;;
68353;SDS011;55274;43.060;25.618;2023-04-25T03:43:30;13.85;;;8.13;;
68353;SDS011;55274;43.060;25.618;2023-04-25T03:45:55;13.30;;;7.93;;
68353;SDS011;55274;43.060;25.618;2023-04-25T03:48:21;14.30;;;7.35;;
68353;SDS011;55274;43.060;25.618;2023-04-25T03:50:49;12.15;;;7.40;;
68353;SDS011;55274;43.060;25.618;2023-04-25T03:53:15;14.43;;;6.68;;
68353;SDS011;55274;43.060;25.618;2023-04-25T03:55:41;12.52;;;6.65;;
68353;SDS011;55274;43.060;25.618;2023-04-25T03:58:07;14.05;;;7.60;;
68353;SDS011;55274;43.060;25.618;2023-04-25T04:00:34;11.18;;;6.65;;
68353;SDS011;55274;43.060;25.618;2023-04-25T04:03:00;16.25;;;7.55;;
68353;SDS011;55274;43.060;25.618;2023-04-25T04:05:26;11.65;;;7.22;;
68353;SDS011;55274;43.060;25.618;2023-04-25T04:07:52;13.20;;;7.18;;
68353;SDS011;55274;43.060;25.618;2023-04-25T04:10:18;15.68;;;8.38;;
68353;SDS011;55274;43.060;25.618;2023-04-25T04:12:44;16.58;;;8.38;;
68353;SDS011;55274;43.060;25.618;2023-04-25T04:15:10;12.60;;;7.68;;
68353;SDS011;55274;43.060;25.618;2023-04-25T04:17:37;13.38;;;8.23;;
68353;SDS011;55274;43.060;25.618;2023-04-25T04:20:03;17.60;;;7.65;;
68353;SDS011;55274;43.060;25.618;2023-04-25T04:22:29;16.95;;;6.90;;
68353;SDS011;55274;43.060;25.618;2023-04-25T04:24:55;11.60;;;6.40;;
68353;SDS011;55274;43.060;25.618;2023-04-25T04:27:22;17.23;;;9.07;;
68353;SDS011;55274;43.060;25.618;2023-04-25T04:29:48;14.18;;;7.05;;
68353;SDS011;55274;43.060;25.618;2023-04-25T04:32:15;18.58;;;7.88;;
68353;SDS011;55274;43.060;25.618;2023-04-25T04:34:42;14.80;;;6.95;;
68353;SDS011;55274;43.060;25.618;2023-04-25T04:37:08;10.63;;;6.82;;
68353;SDS011;55274;43.060;25.618;2023-04-25T04:39:35;11.75;;;6.40;;
68353;SDS011;55274;43.060;25.618;2023-04-25T04:42:02;12.93;;;6.78;;
68353;SDS011;55274;43.060;25.618;2023-04-25T04:44:28;12.80;;;6.43;;
68353;SDS011;55274;43.060;25.618;2023-04-25T04:46:58;11.57;;;6.43;;
68353;SDS011;55274;43.060;25.618;2023-04-25T04:49:24;11.43;;;6.50;;
68353;SDS011;55274;43.060;25.618;2023-04-25T04:51:49;13.35;;;6.78;;
68353;SDS011;55274;43.060;25.618;2023-04-25T04:54:15;18.25;;;8.93;;
68353;SDS011;55274;43.060;25.618;2023-04-25T04:56:41;16.02;;;7.95;;
68353;SDS011;55274;43.060;25.618;2023-04-25T04:59:07;13.90;;;8.20;;
68353;SDS011;55274;43.060;25.618;2023-04-25T05:01:34;15.43;;;7.13;;
68353;SDS011;55274;43.060;25.618;2023-04-25T05:04:02;10.85;;;6.35;;
68353;SDS011;55274;43.060;25.618;2023-04-25T05:06:29;11.85;;;7.22;;
68353;SDS011;55274;43.060;25.618;2023-04-25T05:08:56;37.83;;;18.75;;
68353;SDS011;55274;43.060;25.618;2023-04-25T05:11:23;14.95;;;7.90;;
68353;SDS011;55274;43.060;25.618;2023-04-25T05:13:51;16.60;;;8.07;;
68353;SDS011;55274;43.060;25.618;2023-04-25T05:16:17;16.08;;;8.18;;
68353;SDS011;55274;43.060;25.618;2023-04-25T05:18:43;16.88;;;8.57;;
68353;SDS011;55274;43.060;25.618;2023-04-25T05:21:09;12.38;;;6.72;;
68353;SDS011;55274;43.060;25.618;2023-04-25T05:23:34;19.38;;;7.13;;
68353;SDS011;55274;43.060;25.618;2023-04-25T05:26:00;16.25;;;7.72;;
68353;SDS011;55274;43.060;25.618;2023-04-25T05:28:26;18.52;;;8.52;;
68353;SDS011;55274;43.060;25.618;2023-04-25T05:30:52;16.02;;;9.23;;
68353;SDS011;55274;43.060;25.618;2023-04-25T05:33:18;20.45;;;9.45;;
68353;SDS011;55274;43.060;25.618;2023-04-25T05:35:44;17.90;;;9.73;;
68353;SDS011;55274;43.060;25.618;2023-04-25T05:38:10;24.40;;;9.57;;
68353;SDS011;55274;43.060;25.618;2023-04-25T05:40:36;23.92;;;10.35;;
68353;SDS011;55274;43.060;25.618;2023-04-25T05:43:02;23.92;;;10.20;;
68353;SDS011;55274;43.060;25.618;2023-04-25T05:45:28;26.00;;;11.23;;
68353;SDS011;55274;43.060;25.618;2023-04-25T05:47:53;22.92;;;10.63;;
68353;SDS011;55274;43.060;25.618;2023-04-25T05:50:19;27.17;;;10.93;;
68353;SDS011;55274;43.060;25.618;2023-04-25T05:52:45;22.75;;;11.10;;
68353;SDS011;55274;43.060;25.618;2023-04-25T05:55:11;36.45;;;11.77;;
68353;SDS011;55274;43.060;25.618;2023-04-25T05:57:36;20.15;;;9.52;;
68353;SDS011;55274;43.060;25.618;2023-04-25T06:00:06;19.13;;;8.02;;
68353;SDS011;55274;43.060;25.618;2023-04-25T06:02:34;22.48;;;9.73;;
68353;SDS011;55274;43.060;25.618;2023-04-25T06:05:00;39.00;;;18.75;;
68353;SDS011;55274;43.060;25.618;2023-04-25T06:07:28;20.00;;;9.55;;
68353;SDS011;55274;43.060;25.618;2023-04-25T06:09:57;19.83;;;9.13;;
68353;SDS011;55274;43.060;25.618;2023-04-25T06:12:24;16.10;;;8.25;;
68353;SDS011;55274;43.060;25.618;2023-04-25T06:14:50;16.38;;;7.05;;
68353;SDS011;55274;43.060;25.618;2023-04-25T06:17:15;17.35;;;8.43;;
68353;SDS011;55274;43.060;25.618;2023-04-25T06:19:41;23.92;;;8.07;;
68353;SDS011;55274;43.060;25.618;2023-04-25T06:22:07;21.83;;;7.88;;
68353;SDS011;55274;43.060;25.618;2023-04-25T06:24:33;19.92;;;7.40;;
68353;SDS011;55274;43.060;25.618;2023-04-25T06:26:59;18.80;;;7.65;;
68353;SDS011;55274;43.060;25.618;2023-04-25T06:29:26;17.48;;;7.10;;
68353;SDS011;55274;43.060;25.618;2023-04-25T06:31:52;11.50;;;4.95;;
68353;SDS011;55274;43.060;25.618;2023-04-25T06:34:18;15.38;;;4.97;;
68353;SDS011;55274;43.060;25.618;2023-04-25T06:36:43;11.90;;;5.13;;
68353;SDS011;55274;43.060;25.618;2023-04-25T06:39:09;10.07;;;4.13;;
68353;SDS011;55274;43.060;25.618;2023-04-25T06:41:35;11.38;;;4.18;;
68353;SDS011;55274;43.060;25.618;2023-04-25T06:44:01;8.65;;;3.63;;
68353;SDS011;55274;43.060;25.618;2023-04-25T06:46:27;9.43;;;3.75;;
68353;SDS011;55274;43.060;25.618;2023-04-25T06:48:53;5.72;;;3.30;;
68353;SDS011;55274;43.060;25.618;2023-04-25T06:51:19;7.78;;;3.30;;
68353;SDS011;55274;43.060;25.618;2023-04-25T06:53:45;11.32;;;3.47;;
68353;SDS011;55274;43.060;25.618;2023-04-25T06:56:10;6.72;;;2.90;;
68353;SDS011;55274;43.060;25.618;2023-04-25T06:58:36;9.93;;;3.22;;
68353;SDS011;55274;43.060;25.618;2023-04-25T07:01:02;8.18;;;3.30;;
68353;SDS011;55274;43.060;25.618;2023-04-25T07:03:28;9.23;;;3.20;;
68353;SDS011;55274;43.060;25.618;2023-04-25T07:05:54;9.38;;;3.20;;
68353;SDS011;55274;43.060;25.618;2023-04-25T07:08:20;4.18;;;2.42;;
68353;SDS011;55274;43.060;25.618;2023-04-25T07:10:46;6.60;;;3.05;;
68353;SDS011;55274;43.060;25.618;2023-04-25T07:13:12;7.85;;;3.00;;
68353;SDS011;55274;43.060;25.618;2023-04-25T07:15:38;5.75;;;3.10;;
68353;SDS011;55274;43.060;25.618;2023-04-25T07:18:03;8.95;;;3.30;;
68353;SDS011;55274;43.060;25.618;2023-04-25T07:20:29;6.90;;;3.25;;
68353;SDS011;55274;43.060;25.618;2023-04-25T07:22:56;5.60;;;2.60;;
68353;SDS011;55274;43.060;25.618;2023-04-25T07:25:22;7.30;;;2.80;;
68353;SDS011;55274;43.060;25.618;2023-04-25T07:27:48;11.70;;;3.35;;
68353;SDS011;55274;43.060;25.618;2023-04-25T07:30:14;12.43;;;3.65;;
68353;SDS011;55274;43.060;25.618;2023-04-25T07:32:40;5.75;;;2.20;;
68353;SDS011;55274;43.060;25.618;2023-04-25T07:35:06;5.15;;;2.70;;
68353;SDS011;55274;43.060;25.618;2023-04-25T07:37:35;9.73;;;2.67;;
68353;SDS011;55274;43.060;25.618;2023-04-25T07:40:02;5.72;;;2.58;;
68353;SDS011;55274;43.060;25.618;2023-04-25T07:42:29;7.40;;;2.20;;
68353;SDS011;55274;43.060;25.618;2023-04-25T07:44:55;28.48;;;4.05;;
68353;SDS011;55274;43.060;25.618;2023-04-25T07:47:21;2.60;;;2.00;;
68353;SDS011;55274;43.060;25.618;2023-04-25T07:49:47;21.98;;;3.08;;
68353;SDS011;55274;43.060;25.618;2023-04-25T07:52:13;27.65;;;5.13;;
68353;SDS011;55274;43.060;25.618;2023-04-25T07:54:39;2.55;;;1.35;;
68353;SDS011;55274;43.060;25.618;2023-04-25T07:57:05;3.90;;;1.50;;
68353;SDS011;55274;43.060;25.618;2023-04-25T07:59:34;4.75;;;1.63;;
68353;SDS011;55274;43.060;25.618;2023-04-25T08:02:00;39.85;;;5.28;;
68353;SDS011;55274;43.060;25.618;2023-04-25T08:04:26;14.32;;;3.78;;
68353;SDS011;55274;43.060;25.618;2023-04-25T08:06:52;6.10;;;2.03;;
68353;SDS011;55274;43.060;25.618;2023-04-25T08:09:21;4.65;;;1.77;;
68353;SDS011;55274;43.060;25.618;2023-04-25T08:11:47;2.78;;;1.25;;
68353;SDS011;55274;43.060;25.618;2023-04-25T08:14:13;7.90;;;3.35;;
68353;SDS011;55274;43.060;25.618;2023-04-25T08:16:39;6.53;;;3.20;;
68353;SDS011;55274;43.060;25.618;2023-04-25T08:19:05;12.70;;;3.47;;
68353;SDS011;55274;43.060;25.618;2023-04-25T08:21:31;9.10;;;2.40;;
68353;SDS011;55274;43.060;25.618;2023-04-25T08:23:57;8.50;;;2.30;;
68353;SDS011;55274;43.060;25.618;2023-04-25T08:26:23;13.90;;;3.20;;
68353;SDS011;55274;43.060;25.618;2023-04-25T08:28:50;6.18;;;1.13;;
68353;SDS011;55274;43.060;25.618;2023-04-25T08:31:16;9.10;;;2.17;;
68353;SDS011;55274;43.060;25.618;2023-04-25T08:33:42;5.00;;;1.30;;
68353;SDS011;55274;43.060;25.618;2023-04-25T08:36:08;35.30;;;3.95;;
68353;SDS011;55274;43.060;25.618;2023-04-25T08:38:34;12.13;;;4.35;;
68353;SDS011;55274;43.060;25.618;2023-04-25T08:41:00;3.22;;;1.58;;
68353;SDS011;55274;43.060;25.618;2023-04-25T08:43:29;8.07;;;1.75;;
68353;SDS011;55274;43.060;25.618;2023-04-25T08:45:58;15.13;;;2.10;;
68353;SDS011;55274;43.060;25.618;2023-04-25T08:48:26;13.82;;;2.15;;
68353;SDS011;55274;43.060;25.618;2023-04-25T08:50:53;12.98;;;4.53;;
68353;SDS011;55274;43.060;25.618;2023-04-25T08:53:22;15.25;;;2.30;;
68353;SDS011;55274;43.060;25.618;2023-04-25T08:55:53;5.18;;;1.00;;
68353;SDS011;55274;43.060;25.618;2023-04-25T08:58:20;8.90;;;1.60;;
68353;SDS011;55274;43.060;25.618;2023-04-25T09:00:47;15.25;;;1.90;;
68353;SDS011;55274;43.060;25.618;2023-04-25T09:03:14;8.80;;;1.45;;
68353;SDS011;55274;43.060;25.618;2023-04-25T09:05:41;13.10;;;2.00;;
68353;SDS011;55274;43.060;25.618;2023-04-25T09:08:07;7.00;;;1.85;;
68353;SDS011;55274;43.060;25.618;2023-04-25T09:10:33;66.28;;;5.97;;
68353;SDS011;55274;43.060;25.618;2023-04-25T09:15:29;6.15;;;1.55;;
68353;SDS011;55274;43.060;25.618;2023-04-25T09:17:56;9.82;;;1.85;;
68353;SDS011;55274;43.060;25.618;2023-04-25T09:20:22;7.07;;;2.05;;
68353;SDS011;55274;43.060;25.618;2023-04-25T09:22:49;7.80;;;1.77;;
68353;SDS011;55274;43.060;25.618;2023-04-25T09:25:33;7.25;;;2.13;;
68353;SDS011;55274;43.060;25.618;2023-04-25T09:28:06;25.75;;;2.83;;
68353;SDS011;55274;43.060;25.618;2023-04-25T09:30:36;5.70;;;1.40;;
68353;SDS011;55274;43.060;25.618;2023-04-25T09:35:35;32.65;;;3.58;;
68353;SDS011;55274;43.060;25.618;2023-04-25T09:38:06;72.55;;;6.10;;
68353;SDS011;55274;43.060;25.618;2023-04-25T09:40:43;6.40;;;1.23;;
68353;SDS011;55274;43.060;25.618;2023-04-25T09:43:10;5.47;;;1.23;;
68353;SDS011;55274;43.060;25.618;2023-04-25T09:45:48;6.55;;;1.10;;
68353;SDS011;55274;43.060;25.618;2023-04-25T09:48:18;5.13;;;1.13;;
68353;SDS011;55274;43.060;25.618;2023-04-25T09:51:04;6.68;;;1.80;;
68353;SDS011;55274;43.060;25.618;2023-04-25T09:53:38;257.65;;;20.70;;
68353;SDS011;55274;43.060;25.618;2023-04-25T09:56:06;55.08;;;4.70;;
68353;SDS011;55274;43.060;25.618;2023-04-25T09:58:34;20.40;;;2.05;;
68353;SDS011;55274;43.060;25.618;2023-04-25T10:01:02;57.72;;;8.65;;
68353;SDS011;55274;43.060;25.618;2023-04-25T10:03:31;53.72;;;12.13;;
68353;SDS011;55274;43.060;25.618;2023-04-25T10:05:59;11.27;;;2.35;;
68353;SDS011;55274;43.060;25.618;2023-04-25T10:31:37;11.50;;;4.47;;
68353;SDS011;55274;43.060;25.618;2023-04-25T10:34:12;25.23;;;10.43;;
68353;SDS011;55274;43.060;25.618;2023-04-25T10:36:37;20.83;;;9.55;;
68353;SDS011;55274;43.060;25.618;2023-04-25T10:39:05;17.30;;;6.00;;
68353;SDS011;55274;43.060;25.618;2023-04-25T10:41:32;6.53;;;3.10;;
68353;SDS011;55274;43.060;25.618;2023-04-25T10:44:12;7.93;;;3.15;;
68353;SDS011;55274;43.060;25.618;2023-04-25T10:46:39;12.80;;;5.50;;
68353;SDS011;55274;43.060;25.618;2023-04-25T10:49:05;8.57;;;3.72;;
68353;SDS011;55274;43.060;25.618;2023-04-25T10:51:34;7.68;;;3.05;;
68353;SDS011;55274;43.060;25.618;2023-04-25T10:54:02;13.13;;;5.70;;
68353;SDS011;55274;43.060;25.618;2023-04-25T10:56:30;7.68;;;5.00;;
68353;SDS011;55274;43.060;25.618;2023-04-25T11:01:51;11.77;;;7.35;;
68353;SDS011;55274;43.060;25.618;2023-04-25T11:04:30;14.43;;;8.82;;
68353;SDS011;55274;43.060;25.618;2023-04-25T11:09:51;7.80;;;4.20;;
68353;SDS011;55274;43.060;25.618;2023-04-25T11:12:17;6.65;;;3.78;;
68353;SDS011;55274;43.060;25.618;2023-04-25T11:14:43;5.90;;;3.53;;
68353;SDS011;55274;43.060;25.618;2023-04-25T11:17:09;4.30;;;3.90;;
68353;SDS011;55274;43.060;25.618;2023-04-25T11:19:36;5.22;;;3.70;;
68353;SDS011;55274;43.060;25.618;2023-04-25T11:22:02;6.68;;;4.55;;
68353;SDS011;55274;43.060;25.618;2023-04-25T11:24:32;3.28;;;2.38;;
68353;SDS011;55274;43.060;25.618;2023-04-25T11:27:04;4.75;;;2.65;;
68353;SDS011;55274;43.060;25.618;2023-04-25T11:29:33;5.05;;;3.00;;
68353;SDS011;55274;43.060;25.618;2023-04-25T11:32:00;12.45;;;6.00;;
68353;SDS011;55274;43.060;25.618;2023-04-25T11:34:27;5.60;;;2.03;;
68353;SDS011;55274;43.060;25.618;2023-04-25T11:39:24;4.05;;;1.80;;
68353;SDS011;55274;43.060;25.618;2023-04-25T11:41:51;3.33;;;1.50;;
68353;SDS011;55274;43.060;25.618;2023-04-25T11:44:17;2.70;;;1.25;;
68353;SDS011;55274;43.060;25.618;2023-04-25T11:46:44;2.03;;;0.90;;
68353;SDS011;55274;43.060;25.618;2023-04-25T11:49:10;1.10;;;1.00;;
68353;SDS011;55274;43.060;25.618;2023-04-25T11:51:39;2.97;;;1.35;;
68353;SDS011;55274;43.060;25.618;2023-04-25T11:54:06;3.97;;;1.70;;
68353;SDS011;55274;43.060;25.618;2023-04-25T11:56:33;1.52;;;1.40;;
68353;SDS011;55274;43.060;25.618;2023-04-25T11:58:59;5.35;;;1.50;;
68353;SDS011;55274;43.060;25.618;2023-04-25T12:01:37;2.15;;;1.05;;
68353;SDS011;55274;43.060;25.618;2023-04-25T12:04:14;3.40;;;1.10;;
68353;SDS011;55274;43.060;25.618;2023-04-25T12:06:47;2.08;;;1.13;;
68353;SDS011;55274;43.060;25.618;2023-04-25T12:09:15;2.35;;;1.48;;
68353;SDS011;55274;43.060;25.618;2023-04-25T12:11:53;2.70;;;1.45;;
68353;SDS011;55274;43.060;25.618;2023-04-25T12:14:20;15.10;;;2.40;;
68353;SDS011;55274;43.060;25.618;2023-04-25T12:16:49;2.55;;;1.60;;
68353;SDS011;55274;43.060;25.618;2023-04-25T12:19:17;2.47;;;2.03;;
68353;SDS011;55274;43.060;25.618;2023-04-25T12:21:43;3.30;;;1.50;;
68353;SDS011;55274;43.060;25.618;2023-04-25T12:29:23;4.57;;;1.50;;
68353;SDS011;55274;43.060;25.618;2023-04-25T12:31:50;7.40;;;1.40;;
68353;SDS011;55274;43.060;25.618;2023-04-25T12:34:20;3.00;;;1.70;;
68353;SDS011;55274;43.060;25.618;2023-04-25T12:36:47;4.28;;;1.75;;
68353;SDS011;55274;43.060;25.618;2023-04-25T12:39:14;5.90;;;1.90;;
68353;SDS011;55274;43.060;25.618;2023-04-25T12:41:40;3.72;;;1.70;;
68353;SDS011;55274;43.060;25.618;2023-04-25T12:44:06;2.97;;;1.60;;
68353;SDS011;55274;43.060;25.618;2023-04-25T12:46:32;3.03;;;1.60;;
68353;SDS011;55274;43.060;25.618;2023-04-25T12:48:58;2.17;;;1.30;;
68353;SDS011;55274;43.060;25.618;2023-04-25T12:51:23;5.28;;;1.90;;
68353;SDS011;55274;43.060;25.618;2023-04-25T12:53:50;7.35;;;2.40;;
68353;SDS011;55274;43.060;25.618;2023-04-25T12:56:17;3.30;;;2.00;;
68353;SDS011;55274;43.060;25.618;2023-04-25T12:58:43;4.03;;;2.00;;
68353;SDS011;55274;43.060;25.618;2023-04-25T13:01:09;4.18;;;1.88;;
68353;SDS011;55274;43.060;25.618;2023-04-25T13:03:35;3.72;;;2.08;;
68353;SDS011;55274;43.060;25.618;2023-04-25T13:06:00;3.92;;;2.05;;
68353;SDS011;55274;43.060;25.618;2023-04-25T13:08:26;3.10;;;2.45;;
68353;SDS011;55274;43.060;25.618;2023-04-25T13:10:52;3.72;;;2.38;;
68353;SDS011;55274;43.060;25.618;2023-04-25T13:13:18;5.70;;;2.42;;
68353;SDS011;55274;43.060;25.618;2023-04-25T13:15:43;4.10;;;2.17;;
68353;SDS011;55274;43.060;25.618;2023-04-25T13:18:09;7.05;;;2.10;;
68353;SDS011;55274;43.060;25.618;2023-04-25T13:20:35;6.72;;;3.00;;
68353;SDS011;55274;43.060;25.618;2023-04-25T13:23:01;10.23;;;3.40;;
68353;SDS011;55274;43.060;25.618;2023-04-25T13:25:27;6.40;;;2.50;;
68353;SDS011;55274;43.060;25.618;2023-04-25T13:27:53;4.00;;;2.80;;
68353;SDS011;55274;43.060;25.618;2023-04-25T13:30:18;5.43;;;2.60;;
68353;SDS011;55274;43.060;25.618;2023-04-25T13:32:44;3.50;;;2.30;;
68353;SDS011;55274;43.060;25.618;2023-04-25T13:35:11;4.82;;;2.10;;
68353;SDS011;55274;43.060;25.618;2023-04-25T13:37:38;3.55;;;1.85;;
68353;SDS011;55274;43.060;25.618;2023-04-25T13:40:07;6.95;;;2.58;;
68353;SDS011;55274;43.060;25.618;2023-04-25T13:42:38;4.15;;;2.33;;
68353;SDS011;55274;43.060;25.618;2023-04-25T13:45:04;4.18;;;2.40;;
68353;SDS011;55274;43.060;25.618;2023-04-25T13:47:30;4.68;;;1.90;;
68353;SDS011;55274;43.060;25.618;2023-04-25T13:49:56;5.55;;;2.70;;
68353;SDS011;55274;43.060;25.618;2023-04-25T13:52:22;8.60;;;2.47;;
68353;SDS011;55274;43.060;25.618;2023-04-25T13:54:51;4.20;;;2.50;;
68353;SDS011;55274;43.060;25.618;2023-04-25T13:57:17;4.15;;;2.28;;
68353;SDS011;55274;43.060;25.618;2023-04-25T13:59:43;4.20;;;2.50;;
68353;SDS011;55274;43.060;25.618;2023-04-25T14:02:09;4.38;;;2.58;;
68353;SDS011;55274;43.060;25.618;2023-04-25T14:04:35;5.00;;;2.58;;
68353;SDS011;55274;43.060;25.618;2023-04-25T14:07:01;3.88;;;2.30;;
68353;SDS011;55274;43.060;25.618;2023-04-25T14:09:28;3.58;;;2.13;;
68353;SDS011;55274;43.060;25.618;2023-04-25T14:11:54;5.28;;;2.20;;
68353;SDS011;55274;43.060;25.618;2023-04-25T14:14:21;4.65;;;2.67;;
68353;SDS011;55274;43.060;25.618;2023-04-25T14:16:47;3.08;;;2.03;;
68353;SDS011;55274;43.060;25.618;2023-04-25T14:19:14;3.53;;;2.45;;
68353;SDS011;55274;43.060;25.618;2023-04-25T14:21:40;6.18;;;2.40;;
68353;SDS011;55274;43.060;25.618;2023-04-25T14:24:06;2.63;;;2.22;;
68353;SDS011;55274;43.060;25.618;2023-04-25T14:26:33;5.15;;;2.33;;
68353;SDS011;55274;43.060;25.618;2023-04-25T14:29:00;5.10;;;2.30;;
68353;SDS011;55274;43.060;25.618;2023-04-25T14:31:26;4.00;;;2.85;;
68353;SDS011;55274;43.060;25.618;2023-04-25T14:33:52;4.38;;;3.10;;
68353;SDS011;55274;43.060;25.618;2023-04-25T14:36:18;6.13;;;3.78;;
68353;SDS011;55274;43.060;25.618;2023-04-25T14:38:44;6.65;;;3.83;;
68353;SDS011;55274;43.060;25.618;2023-04-25T14:41:10;4.22;;;2.70;;
68353;SDS011;55274;43.060;25.618;2023-04-25T14:43:36;2.72;;;1.50;;
68353;SDS011;55274;43.060;25.618;2023-04-25T14:46:02;3.15;;;1.48;;
68353;SDS011;55274;43.060;25.618;2023-04-25T14:48:28;3.97;;;1.33;;
68353;SDS011;55274;43.060;25.618;2023-04-25T14:50:54;4.03;;;1.50;;
68353;SDS011;55274;43.060;25.618;2023-04-25T14:53:21;3.97;;;1.33;;
68353;SDS011;55274;43.060;25.618;2023-04-25T14:55:47;2.90;;;1.42;;
68353;SDS011;55274;43.060;25.618;2023-04-25T14:58:14;3.22;;;1.48;;
68353;SDS011;55274;43.060;25.618;2023-04-25T15:00:40;8.05;;;1.88;;
68353;SDS011;55274;43.060;25.618;2023-04-25T15:03:05;5.68;;;2.17;;
68353;SDS011;55274;43.060;25.618;2023-04-25T15:05:32;4.35;;;1.52;;
68353;SDS011;55274;43.060;25.618;2023-04-25T15:07:59;3.58;;;1.80;;